UAL2677 KEWR-KIAD
Flight info
| Callsign | UAL2677 |
|---|---|
| Flight time | 0h 39m |
| Altitude | 28000 |
| Route | PARKE HYPER9 |
| Aircraft | A320/M-SDE3FGHIRWY/LB1 |
Departure
| Time | 2026-05-04 11:19 |
|---|---|
| Airport | Newark Liberty International Airport (KEWR) |
Arrival
| Time | 2026-05-04 11:58 |
|---|---|
| Airport | Washington Dulles International Airport (KIAD) |
| Time | Latitude | Longitude | Altitude | Speed | Heading |
|---|---|---|---|---|---|
| 2026-05-04 10:51 | 40.69515 | -74.17291 | 24 ft | 0 kts | 256° |
| 2026-05-04 11:10 | 40.69519 | -74.17271 | 22 ft | 4 kts | 259° |
| 2026-05-04 11:12 | 40.69475 | -74.17163 | 24 ft | 0 kts | 324° |
| 2026-05-04 11:13 | 40.69481 | -74.17168 | 24 ft | 2 kts | 326° |
| 2026-05-04 11:13 | 40.69507 | -74.17175 | 24 ft | 5 kts | 355° |
| 2026-05-04 11:14 | 40.69552 | -74.17179 | 22 ft | 8 kts | 356° |
| 2026-05-04 11:14 | 40.69610 | -74.17171 | 22 ft | 9 kts | 39° |
| 2026-05-04 11:14 | 40.69608 | -74.17087 | 23 ft | 10 kts | 103° |
| 2026-05-04 11:16 | 40.70064 | -74.16479 | 21 ft | 8 kts | 76° |
| 2026-05-04 11:16 | 40.70065 | -74.16463 | 21 ft | 0 kts | 86° |
| 2026-05-04 11:16 | 40.70065 | -74.16462 | 21 ft | 0 kts | 86° |
| 2026-05-04 11:17 | 40.70066 | -74.16458 | 20 ft | 2 kts | 86° |
| 2026-05-04 11:17 | 40.70054 | -74.16406 | 22 ft | 9 kts | 122° |
| 2026-05-04 11:19 | 40.65529 | -74.18745 | 1249 ft | 199 kts | 193° |
| 2026-05-04 11:19 | 40.64118 | -74.19012 | 2002 ft | 208 kts | 193° |
| 2026-05-04 11:19 | 40.62712 | -74.19526 | 2405 ft | 209 kts | 214° |
| 2026-05-04 11:19 | 40.61677 | -74.20911 | 2501 ft | 226 kts | 243° |
| 2026-05-04 11:20 | 40.61094 | -74.22874 | 2513 ft | 233 kts | 249° |
| 2026-05-04 11:20 | 40.60499 | -74.24870 | 2523 ft | 235 kts | 248° |
| 2026-05-04 11:20 | 40.59876 | -74.26892 | 2854 ft | 243 kts | 247° |
| 2026-05-04 11:20 | 40.59275 | -74.28951 | 3962 ft | 241 kts | 254° |
| 2026-05-04 11:22 | 40.58911 | -74.45041 | 10279 ft | 266 kts | 267° |
| 2026-05-04 11:22 | 40.58860 | -74.47581 | 10526 ft | 289 kts | 267° |
| 2026-05-04 11:23 | 40.58800 | -74.50329 | 10716 ft | 312 kts | 267° |
| 2026-05-04 11:23 | 40.58736 | -74.53266 | 11076 ft | 327 kts | 268° |
| 2026-05-04 11:24 | 40.58374 | -74.71813 | 15088 ft | 349 kts | 272° |
| 2026-05-04 11:25 | 40.58690 | -74.74981 | 15705 ft | 352 kts | 282° |
| 2026-05-04 11:25 | 40.59463 | -74.78048 | 16338 ft | 355 kts | 290° |
| 2026-05-04 11:25 | 40.60382 | -74.81073 | 16984 ft | 357 kts | 290° |
| 2026-05-04 11:26 | 40.62225 | -74.87194 | 18325 ft | 362 kts | 290° |
| 2026-05-04 11:27 | 40.68042 | -75.09678 | 22234 ft | 381 kts | 272° |
| 2026-05-04 11:28 | 40.67903 | -75.13176 | 22719 ft | 385 kts | 265° |
| 2026-05-04 11:28 | 40.67619 | -75.16687 | 23193 ft | 387 kts | 265° |
| 2026-05-04 11:28 | 40.67341 | -75.20229 | 23650 ft | 389 kts | 265° |
| 2026-05-04 11:28 | 40.67066 | -75.23783 | 24033 ft | 392 kts | 265° |
| 2026-05-04 11:29 | 40.66789 | -75.27362 | 24422 ft | 393 kts | 265° |
| 2026-05-04 11:29 | 40.66511 | -75.30955 | 24802 ft | 395 kts | 265° |
| 2026-05-04 11:29 | 40.66204 | -75.34556 | 25173 ft | 397 kts | 262° |
| 2026-05-04 11:29 | 40.65542 | -75.38107 | 25544 ft | 402 kts | 253° |
| 2026-05-04 11:31 | 40.55941 | -75.61160 | 27994 ft | 418 kts | 243° |
| 2026-05-04 11:33 | 40.45854 | -75.84381 | 27075 ft | 422 kts | 243° |
| 2026-05-04 11:33 | 40.44311 | -75.87665 | 26812 ft | 425 kts | 238° |
| 2026-05-04 11:33 | 40.42426 | -75.90685 | 26548 ft | 430 kts | 230° |
| 2026-05-04 11:34 | 40.40278 | -75.93441 | 26291 ft | 433 kts | 228° |
| 2026-05-04 11:34 | 40.38106 | -75.96182 | 26027 ft | 434 kts | 228° |
| 2026-05-04 11:34 | 40.35928 | -75.98937 | 25776 ft | 435 kts | 228° |
| 2026-05-04 11:34 | 40.33753 | -76.01697 | 25524 ft | 436 kts | 228° |
| 2026-05-04 11:35 | 40.31572 | -76.04462 | 25276 ft | 437 kts | 228° |
| 2026-05-04 11:35 | 40.29385 | -76.07229 | 25033 ft | 436 kts | 228° |
| 2026-05-04 11:35 | 40.27204 | -76.09985 | 24771 ft | 435 kts | 228° |
| 2026-05-04 11:35 | 40.25029 | -76.12732 | 24527 ft | 434 kts | 228° |
| 2026-05-04 11:36 | 40.22888 | -76.15437 | 24301 ft | 433 kts | 228° |
| 2026-05-04 11:36 | 40.20719 | -76.18173 | 24060 ft | 433 kts | 228° |
| 2026-05-04 11:36 | 40.18550 | -76.20901 | 23824 ft | 432 kts | 227° |
| 2026-05-04 11:36 | 40.16381 | -76.23623 | 23586 ft | 431 kts | 227° |
| 2026-05-04 11:37 | 40.14218 | -76.26334 | 23304 ft | 430 kts | 227° |
| 2026-05-04 11:37 | 40.12187 | -76.29170 | 23020 ft | 425 kts | 235° |
| 2026-05-04 11:37 | 40.10521 | -76.32318 | 22741 ft | 419 kts | 242° |
| 2026-05-04 11:37 | 40.09030 | -76.35586 | 22459 ft | 418 kts | 242° |
| 2026-05-04 11:38 | 40.07536 | -76.38835 | 22183 ft | 417 kts | 242° |
| 2026-05-04 11:38 | 40.06038 | -76.42075 | 21913 ft | 416 kts | 242° |
| 2026-05-04 11:38 | 40.04546 | -76.45297 | 21647 ft | 414 kts | 242° |
| 2026-05-04 11:38 | 40.03058 | -76.48511 | 21383 ft | 413 kts | 242° |
| 2026-05-04 11:39 | 40.01574 | -76.51714 | 21110 ft | 412 kts | 242° |
| 2026-05-04 11:39 | 40.00094 | -76.54900 | 20855 ft | 410 kts | 242° |
| 2026-05-04 11:40 | 39.91402 | -76.73571 | 17266 ft | 390 kts | 242° |
| 2026-05-04 11:41 | 39.90000 | -76.76574 | 16634 ft | 386 kts | 242° |
| 2026-05-04 11:41 | 39.88611 | -76.79545 | 16009 ft | 383 kts | 242° |
| 2026-05-04 11:41 | 39.87232 | -76.82493 | 15387 ft | 379 kts | 242° |
| 2026-05-04 11:41 | 39.85864 | -76.85416 | 14763 ft | 377 kts | 242° |
| 2026-05-04 11:42 | 39.84506 | -76.88313 | 14145 ft | 373 kts | 242° |
| 2026-05-04 11:42 | 39.83160 | -76.91186 | 13451 ft | 371 kts | 242° |
| 2026-05-04 11:42 | 39.81819 | -76.94040 | 12751 ft | 368 kts | 242° |
| 2026-05-04 11:42 | 39.80491 | -76.96860 | 12093 ft | 363 kts | 241° |
| 2026-05-04 11:43 | 39.79178 | -76.99642 | 11420 ft | 359 kts | 241° |
| 2026-05-04 11:43 | 39.77884 | -77.02382 | 10969 ft | 349 kts | 241° |
| 2026-05-04 11:43 | 39.76646 | -77.05003 | 10839 ft | 332 kts | 242° |
| 2026-05-04 11:43 | 39.75470 | -77.07497 | 10713 ft | 316 kts | 242° |
| 2026-05-04 11:44 | 39.74348 | -77.09880 | 10576 ft | 302 kts | 242° |
| 2026-05-04 11:44 | 39.73273 | -77.12163 | 10453 ft | 291 kts | 242° |
| 2026-05-04 11:44 | 39.72237 | -77.14361 | 10330 ft | 280 kts | 242° |
| 2026-05-04 11:44 | 39.71233 | -77.16487 | 10115 ft | 274 kts | 242° |
| 2026-05-04 11:45 | 39.70246 | -77.18576 | 9913 ft | 268 kts | 242° |
| 2026-05-04 11:45 | 39.69274 | -77.20635 | 9991 ft | 270 kts | 242° |
| 2026-05-04 11:45 | 39.68212 | -77.22651 | 9982 ft | 273 kts | 233° |
| 2026-05-04 11:45 | 39.66864 | -77.24365 | 9842 ft | 276 kts | 227° |
| 2026-05-04 11:46 | 39.65455 | -77.26051 | 9706 ft | 275 kts | 227° |
| 2026-05-04 11:46 | 39.64048 | -77.27734 | 9574 ft | 275 kts | 227° |
| 2026-05-04 11:46 | 39.62646 | -77.29411 | 9457 ft | 274 kts | 227° |
| 2026-05-04 11:46 | 39.61250 | -77.31086 | 9338 ft | 273 kts | 227° |
| 2026-05-04 11:47 | 39.59858 | -77.32758 | 9214 ft | 273 kts | 227° |
| 2026-05-04 11:47 | 39.58467 | -77.34426 | 9083 ft | 272 kts | 227° |
| 2026-05-04 11:47 | 39.56994 | -77.35971 | 8936 ft | 277 kts | 213° |
| 2026-05-04 11:47 | 39.55181 | -77.36865 | 8598 ft | 282 kts | 199° |
| 2026-05-04 11:48 | 39.53248 | -77.37325 | 8297 ft | 283 kts | 192° |
| 2026-05-04 11:48 | 39.51298 | -77.37606 | 7991 ft | 281 kts | 190° |
| 2026-05-04 11:48 | 39.49356 | -77.37849 | 7695 ft | 279 kts | 190° |
| 2026-05-04 11:48 | 39.47430 | -77.38110 | 7396 ft | 277 kts | 191° |
| 2026-05-04 11:49 | 39.45523 | -77.38406 | 7099 ft | 275 kts | 192° |
| 2026-05-04 11:49 | 39.43634 | -77.38730 | 6808 ft | 273 kts | 192° |
| 2026-05-04 11:49 | 39.41759 | -77.39068 | 6512 ft | 271 kts | 192° |
| 2026-05-04 11:49 | 39.39901 | -77.39413 | 6209 ft | 269 kts | 192° |
| 2026-05-04 11:50 | 39.38053 | -77.39760 | 5914 ft | 268 kts | 192° |
| 2026-05-04 11:50 | 39.36221 | -77.40109 | 5616 ft | 265 kts | 192° |
| 2026-05-04 11:50 | 39.34400 | -77.40457 | 5327 ft | 264 kts | 192° |
| 2026-05-04 11:50 | 39.32586 | -77.40802 | 5051 ft | 263 kts | 192° |
| 2026-05-04 11:51 | 39.30782 | -77.41142 | 4761 ft | 261 kts | 192° |
| 2026-05-04 11:51 | 39.28989 | -77.41478 | 4478 ft | 260 kts | 192° |
| 2026-05-04 11:51 | 39.27208 | -77.41812 | 4196 ft | 258 kts | 192° |
| 2026-05-04 11:51 | 39.25441 | -77.42142 | 3918 ft | 256 kts | 191° |
| 2026-05-04 11:52 | 39.23688 | -77.42471 | 3645 ft | 253 kts | 191° |
| 2026-05-04 11:52 | 39.21954 | -77.42797 | 3380 ft | 251 kts | 191° |
| 2026-05-04 11:52 | 39.20229 | -77.43122 | 3106 ft | 249 kts | 191° |
| 2026-05-04 11:52 | 39.18522 | -77.43440 | 2838 ft | 247 kts | 191° |
| 2026-05-04 11:53 | 39.16840 | -77.43751 | 2686 ft | 240 kts | 190° |
| 2026-05-04 11:53 | 39.15760 | -77.43951 | 2629 ft | 234 kts | 191° |
| 2026-05-04 11:53 | 39.13668 | -77.44338 | 2504 ft | 220 kts | 191° |
| 2026-05-04 11:53 | 39.12180 | -77.44614 | 2400 ft | 211 kts | 191° |
| 2026-05-04 11:55 | 39.04178 | -77.45802 | 1730 ft | 132 kts | 185° |
| 2026-05-04 11:55 | 39.03263 | -77.45828 | 1556 ft | 131 kts | 184° |
| 2026-05-04 11:56 | 39.02353 | -77.45848 | 1381 ft | 131 kts | 184° |
| 2026-05-04 11:56 | 39.01445 | -77.45865 | 1191 ft | 131 kts | 182° |
| 2026-05-04 11:56 | 39.00528 | -77.45880 | 1013 ft | 132 kts | 181° |
| 2026-05-04 11:56 | 38.99612 | -77.45894 | 825 ft | 130 kts | 180° |
| 2026-05-04 11:57 | 38.98703 | -77.45908 | 650 ft | 131 kts | 181° |
| 2026-05-04 11:57 | 38.97793 | -77.45921 | 470 ft | 131 kts | 181° |
| 2026-05-04 11:57 | 38.96880 | -77.45939 | 321 ft | 131 kts | 180° |
| 2026-05-04 11:57 | 38.96070 | -77.45951 | 300 ft | 100 kts | 180° |
| 2026-05-04 11:58 | 38.95491 | -77.45955 | 305 ft | 60 kts | 181° |
| 2026-05-04 11:58 | 38.95188 | -77.45961 | 303 ft | 28 kts | 181° |
| 2026-05-04 11:58 | 38.95051 | -77.45946 | 299 ft | 15 kts | 165° |
| 2026-05-04 11:58 | 38.94967 | -77.45894 | 301 ft | 14 kts | 151° |
| 2026-05-04 11:59 | 38.94949 | -77.45881 | 300 ft | 0 kts | 150° |
| 2026-05-04 11:59 | 38.94946 | -77.45879 | 300 ft | 3 kts | 150° |
| 2026-05-04 12:00 | 38.94898 | -77.45842 | 301 ft | 12 kts | 148° |
| 2026-05-04 12:00 | 38.94821 | -77.45781 | 300 ft | 15 kts | 148° |
| 2026-05-04 12:00 | 38.94761 | -77.45674 | 300 ft | 17 kts | 97° |
| 2026-05-04 12:00 | 38.94733 | -77.45532 | 301 ft | 12 kts | 100° |
| 2026-05-04 12:01 | 38.94745 | -77.45419 | 304 ft | 14 kts | 49° |
| 2026-05-04 12:01 | 38.94809 | -77.45388 | 300 ft | 6 kts | 17° |
| 2026-05-04 12:02 | 38.94818 | -77.45385 | 300 ft | 0 kts | 15° |